createdAt,value
2023-02-21T00:02:03.291Z,102122.31
2023-02-21T00:04:48.681Z,102125.06
2023-02-21T00:07:34.234Z,102114.44
2023-02-21T00:10:20.036Z,102123.28
2023-02-21T00:13:05.832Z,102113.56
2023-02-21T00:15:51.609Z,102120.66
2023-02-21T00:18:37.200Z,102122.31
2023-02-21T00:21:24.254Z,102120.47
2023-02-21T00:24:09.988Z,102117.00
2023-02-21T00:26:55.796Z,102113.63
2023-02-21T00:29:41.273Z,102121.34
2023-02-21T00:32:26.849Z,102125.00
2023-02-21T00:35:12.654Z,102123.28
2023-02-21T00:37:58.484Z,102119.53
2023-02-21T00:40:44.567Z,102122.31
2023-02-21T00:43:30.277Z,102118.72
2023-02-21T00:46:15.991Z,102113.41
2023-02-21T00:49:01.804Z,102108.25
2023-02-21T00:51:47.263Z,102110.88
2023-02-21T00:54:32.946Z,102108.25
2023-02-21T00:57:18.692Z,102111.66
2023-02-21T01:00:04.531Z,102114.28
2023-02-21T01:02:49.977Z,102115.94
2023-02-21T01:05:35.873Z,102115.94
2023-02-21T01:08:21.259Z,102110.88
2023-02-21T01:11:06.899Z,102122.97
2023-02-21T01:13:52.521Z,102106.22
2023-02-21T01:16:38.205Z,102119.41
2023-02-21T01:19:23.754Z,102119.53
2023-02-21T01:22:09.561Z,102128.09
2023-02-21T01:24:55.008Z,102120.34
2023-02-21T01:27:40.714Z,102126.44
2023-02-21T01:30:26.905Z,102119.41
2023-02-21T01:33:12.795Z,102113.19
2023-02-21T01:35:58.633Z,102113.25
2023-02-21T01:38:44.138Z,102119.25
2023-02-21T01:41:30.111Z,102120.22
2023-02-21T01:44:22.747Z,102118.44
2023-02-21T01:47:08.065Z,102120.16
2023-02-21T01:49:58.119Z,102107.94
2023-02-21T01:52:44.288Z,102112.22
2023-02-21T01:55:30.721Z,102107.00
2023-02-21T01:58:16.953Z,102105.31
2023-02-21T02:01:03.468Z,102098.91
2023-02-21T02:03:52.348Z,102094.56
2023-02-21T02:06:37.928Z,102084.91
2023-02-21T02:09:38.643Z,102085.81
2023-02-21T02:12:33.458Z,102086.50
2023-02-21T02:15:05.909Z,102090.03
2023-02-21T02:18:16.952Z,102085.81
2023-02-21T02:21:17.529Z,102083.25
2023-02-21T02:24:20.757Z,102076.09
2023-02-21T02:27:21.361Z,102077.94
2023-02-21T02:30:33.161Z,102073.41
2023-02-21T02:33:27.333Z,102066.44
2023-02-21T02:36:01.684Z,102068.22
2023-02-21T02:39:11.821Z,102061.19
2023-02-21T02:41:55.389Z,102066.44
2023-02-21T02:44:50.586Z,102055.88
2023-02-21T02:47:27.307Z,102058.44
2023-02-21T02:49:55.753Z,102055.81
2023-02-21T02:52:22.692Z,102063.81
2023-02-21T02:55:01.118Z,102055.94
2023-02-21T02:57:38.252Z,102057.75
2023-02-21T03:00:08.314Z,102062.84
2023-02-21T03:02:51.275Z,102048.03
2023-02-21T03:06:02.524Z,102054.16
2023-02-21T03:08:53.066Z,102036.66
2023-02-21T03:11:26.851Z,102038.38
2023-02-21T03:14:10.304Z,102034.84
2023-02-21T03:17:11.838Z,102040.09
2023-02-21T03:19:43.467Z,102031.28
2023-02-21T03:22:18.644Z,102035.50
2023-02-21T03:24:48.610Z,102042.38
2023-02-21T03:27:18.014Z,102044.31
2023-02-21T03:29:45.959Z,102035.63
2023-02-21T03:32:37.691Z,102032.94
2023-02-21T03:35:06.052Z,102028.59
2023-02-21T03:37:45.559Z,102032.94
2023-02-21T03:40:24.367Z,102022.31
2023-02-21T03:42:53.121Z,102031.00
2023-02-21T03:45:20.477Z,102029.34
2023-02-21T03:47:47.528Z,102021.44
2023-02-21T03:50:15.206Z,102023.16
2023-02-21T03:52:42.441Z,102030.31
2023-02-21T03:55:10.084Z,102020.44
2023-02-21T03:57:37.143Z,102025.84
2023-02-21T04:00:04.826Z,102020.53
2023-02-21T04:02:31.873Z,102017.00
2023-02-21T04:04:58.979Z,102020.44
2023-02-21T04:07:26.090Z,102022.25
2023-02-21T04:09:53.080Z,102020.38
2023-02-21T04:12:20.116Z,102013.47
2023-02-21T04:14:47.075Z,102017.75
2023-02-21T04:17:14.124Z,102017.75
2023-02-21T04:19:41.147Z,102024.09
2023-02-21T04:22:08.215Z,102018.63
2023-02-21T04:24:35.200Z,102015.13
2023-02-21T04:27:02.381Z,102017.63
2023-02-21T04:29:29.443Z,102016.84
2023-02-21T04:31:56.955Z,102027.25
2023-02-21T04:34:24.089Z,102027.41
2023-02-21T04:36:51.244Z,102017.53
2023-02-21T04:39:18.272Z,102023.94
2023-02-21T04:41:45.285Z,102023.94
2023-02-21T04:44:13.171Z,102030.84
2023-02-21T04:46:40.141Z,102019.41
2023-02-21T04:49:07.207Z,102015.88
2023-02-21T04:51:34.199Z,102019.47
2023-02-21T04:54:01.257Z,102015.13
2023-02-21T04:56:29.133Z,102023.22
2023-02-21T04:58:56.571Z,102020.53
2023-02-21T05:01:26.559Z,102017.16
2023-02-21T05:03:53.639Z,102016.91
2023-02-21T05:06:27.386Z,102020.44
2023-02-21T05:08:54.625Z,102009.16
2023-02-21T05:11:22.631Z,102017.81
2023-02-21T05:13:49.649Z,102010.03
2023-02-21T05:16:18.120Z,102016.09
2023-02-21T05:18:47.745Z,102011.84
2023-02-21T05:21:16.619Z,102010.94
2023-02-21T05:23:56.006Z,102011.84
2023-02-21T05:26:32.745Z,102009.94
2023-02-21T05:28:59.930Z,102011.84
2023-02-21T05:31:27.313Z,102012.66
2023-02-21T05:33:54.469Z,102012.66
2023-02-21T05:36:24.591Z,102006.59
2023-02-21T05:38:55.587Z,102004.72
2023-02-21T05:41:23.020Z,102008.97
2023-02-21T05:43:50.719Z,101997.75
2023-02-21T05:46:28.407Z,102002.97
2023-02-21T05:48:57.902Z,102003.22
2023-02-21T05:51:25.941Z,101992.66
2023-02-21T05:53:53.112Z,101993.44
2023-02-21T05:56:21.392Z,101988.03
2023-02-21T05:58:49.190Z,102001.34
2023-02-21T06:01:16.747Z,101993.56
2023-02-21T06:03:44.063Z,102003.75
2023-02-21T06:06:11.495Z,102001.94
2023-02-21T06:08:47.498Z,102006.44
2023-02-21T06:11:21.571Z,102011.66
2023-02-21T06:13:52.510Z,102006.31
2023-02-21T06:16:19.613Z,102004.63
2023-02-21T06:18:50.235Z,102007.97
2023-02-21T06:21:17.468Z,102011.41
2023-02-21T06:23:44.583Z,102005.41
2023-02-21T06:26:12.182Z,102010.66
2023-02-21T06:28:39.255Z,102007.31
2023-02-21T06:31:06.376Z,102018.56
2023-02-21T06:33:33.584Z,102021.13
2023-02-21T06:36:07.704Z,102009.75
2023-02-21T06:38:35.126Z,102006.31
2023-02-21T06:41:09.354Z,102009.69
2023-02-21T06:43:36.762Z,102017.53
2023-02-21T06:46:04.661Z,102022.09
2023-02-21T06:48:32.300Z,102020.88
2023-02-21T06:51:00.085Z,102013.00
2023-02-21T06:53:27.276Z,101994.28
2023-02-21T06:56:03.082Z,101974.28
2023-02-21T06:58:30.047Z,101971.59
2023-02-21T07:00:58.586Z,101961.59
2023-02-21T07:03:26.494Z,101964.53
2023-02-21T07:05:53.863Z,101956.88
2023-02-21T07:08:21.713Z,101961.50
2023-02-21T07:10:48.784Z,101960.72
2023-02-21T07:13:15.768Z,101965.16
2023-02-21T07:15:42.848Z,101967.91
2023-02-21T07:18:09.785Z,101973.28
2023-02-21T07:20:36.863Z,101980.41
2023-02-21T07:23:03.886Z,101982.16
2023-02-21T07:25:31.416Z,101983.16
2023-02-21T07:27:58.375Z,101984.16
2023-02-21T07:30:25.333Z,101977.16
2023-02-21T07:35:19.801Z,101982.53
2023-02-21T07:37:46.821Z,101984.38
2023-02-21T07:40:14.157Z,101982.66
2023-02-21T07:42:44.338Z,101978.25
2023-02-21T07:45:12.538Z,101977.44
2023-02-21T07:47:39.595Z,101979.28
2023-02-21T07:50:07.646Z,101967.06
2023-02-21T07:52:34.711Z,101968.88
2023-02-21T07:55:02.260Z,101969.84
2023-02-21T07:57:30.078Z,101961.06
2023-02-21T07:59:57.069Z,101962.88
2023-02-21T08:02:24.066Z,101964.72
2023-02-21T08:04:52.248Z,101963.00
2023-02-21T08:07:19.917Z,101967.44
2023-02-21T08:09:47.225Z,101959.56
2023-02-21T08:12:14.190Z,101957.84
2023-02-21T08:14:41.166Z,101963.13
2023-02-21T08:17:08.264Z,101957.88
2023-02-21T08:19:35.287Z,101964.97
2023-02-21T08:22:02.464Z,101965.88
2023-02-21T08:24:29.406Z,101955.34
2023-02-21T08:26:56.470Z,101947.41
2023-02-21T08:29:23.455Z,101943.03
2023-02-21T08:31:50.759Z,101954.50
2023-02-21T08:34:17.760Z,101951.00
2023-02-21T08:36:44.804Z,101945.75
2023-02-21T08:39:12.237Z,101955.44
2023-02-21T08:41:42.962Z,101943.09
2023-02-21T08:44:12.957Z,101938.78
2023-02-21T08:46:40.827Z,101943.19
2023-02-21T08:49:09.280Z,101950.28
2023-02-21T08:51:36.786Z,101937.91
2023-02-21T08:54:04.240Z,101944.09
2023-02-21T08:56:31.399Z,101938.81
2023-02-21T08:58:58.882Z,101930.91
2023-02-21T09:01:34.029Z,101932.66
2023-02-21T09:04:04.036Z,101924.75
2023-02-21T09:06:31.567Z,101929.19
2023-02-21T09:08:58.838Z,101934.47
2023-02-21T09:11:26.000Z,101925.69
2023-02-21T09:13:55.408Z,101924.78
2023-02-21T09:16:22.894Z,101927.44
2023-02-21T09:19:01.470Z,101916.00
2023-02-21T09:21:28.897Z,101915.13
2023-02-21T09:23:57.078Z,101909.81
2023-02-21T09:26:24.365Z,101910.72
2023-02-21T09:28:52.915Z,101914.25
2023-02-21T09:31:20.740Z,101909.81
2023-02-21T09:33:47.738Z,101910.75
2023-02-21T09:36:14.751Z,101905.47
2023-02-21T09:38:42.074Z,101909.84
2023-02-21T09:41:14.922Z,101922.19
2023-02-21T09:43:54.046Z,101909.84
2023-02-21T09:46:46.527Z,101916.03
2023-02-21T09:49:29.013Z,101915.19
2023-02-21T09:51:58.081Z,101914.28
2023-02-21T09:54:31.416Z,101920.47
2023-02-21T09:57:02.411Z,101923.97
2023-02-21T09:59:34.989Z,101925.72
2023-02-21T10:02:18.441Z,101915.97
2023-02-21T10:05:15.547Z,101915.97
2023-02-21T10:08:26.535Z,101912.47
2023-02-21T10:11:16.297Z,101910.69
2023-02-21T10:13:53.578Z,101918.63
2023-02-21T10:16:43.330Z,101913.34
2023-02-21T10:19:40.080Z,101919.53
2023-02-21T10:22:33.567Z,101918.66
2023-02-21T10:25:21.591Z,101915.16
2023-02-21T10:27:49.851Z,101914.25
2023-02-21T10:30:40.678Z,101918.69
2023-02-21T10:33:08.814Z,101925.75
2023-02-21T10:35:39.604Z,101916.94
2023-02-21T10:38:21.533Z,101918.66
2023-02-21T10:41:04.473Z,101913.41
2023-02-21T10:43:48.268Z,101908.09
2023-02-21T10:46:27.842Z,101912.50
2023-02-21T10:49:17.345Z,101908.09
2023-02-21T10:51:44.414Z,101908.09
2023-02-21T10:54:25.910Z,101908.13
2023-02-21T10:56:54.107Z,101912.50
2023-02-21T10:59:29.162Z,101909.84
2023-02-21T11:01:58.008Z,101909.81
2023-02-21T11:04:35.434Z,101904.56
2023-02-21T11:07:16.008Z,101904.59
2023-02-21T11:09:46.314Z,101905.50
2023-02-21T11:12:15.921Z,101909.88
2023-02-21T11:15:03.201Z,101908.09
2023-02-21T11:17:32.545Z,101905.47
2023-02-21T11:20:17.751Z,101894.91
2023-02-21T11:22:49.943Z,101889.59
2023-02-21T11:25:26.079Z,101894.94
2023-02-21T11:28:07.453Z,101885.22
2023-02-21T11:30:46.746Z,101886.97
2023-02-21T11:33:22.618Z,101881.69
2023-02-21T11:35:52.686Z,101877.28
2023-02-21T11:38:37.670Z,101872.00
2023-02-21T11:41:22.226Z,101874.66
2023-02-21T11:43:54.871Z,101872.88
2023-02-21T11:46:50.779Z,101864.97
2023-02-21T11:49:48.423Z,101863.19
2023-02-21T11:52:26.673Z,101857.03
2023-02-21T11:54:53.666Z,101859.69
2023-02-21T11:57:35.890Z,101862.31
2023-02-21T12:00:23.183Z,101864.09
2023-02-21T12:03:03.313Z,101856.16
2023-02-21T12:06:03.398Z,101853.53
2023-02-21T12:09:01.875Z,101860.56
2023-02-21T12:12:11.859Z,101851.75
2023-02-21T12:15:10.833Z,101852.63
2023-02-21T12:17:59.470Z,101847.34
2023-02-21T12:20:55.123Z,101851.75
2023-02-21T12:24:09.413Z,101852.66
2023-02-21T12:27:03.332Z,101846.47
2023-02-21T12:29:50.001Z,101837.66
2023-02-21T12:32:56.251Z,101837.66
2023-02-21T12:35:44.097Z,101835.03
2023-02-21T12:38:45.497Z,101835.88
2023-02-21T12:41:58.740Z,101831.50
2023-02-21T12:45:12.741Z,101827.97
2023-02-21T12:48:05.954Z,101823.56
2023-02-21T12:50:53.234Z,101818.28
2023-02-21T12:53:55.275Z,101819.16
2023-02-21T12:56:33.089Z,101821.78
2023-02-21T12:59:27.402Z,101817.38
2023-02-21T13:02:04.460Z,101815.63
2023-02-21T13:04:52.621Z,101808.56
2023-02-21T13:07:45.242Z,101809.44
2023-02-21T13:10:52.214Z,101808.56
2023-02-21T13:13:32.286Z,101807.69
2023-02-21T13:16:03.651Z,101805.03
2023-02-21T13:18:35.538Z,101809.47
2023-02-21T13:21:23.185Z,101802.41
2023-02-21T13:23:57.436Z,101802.41
2023-02-21T13:26:34.511Z,101797.13
2023-02-21T13:29:01.644Z,101799.75
2023-02-21T13:31:39.430Z,101790.97
2023-02-21T13:34:11.388Z,101795.34
2023-02-21T13:36:38.270Z,101787.44
2023-02-21T13:39:05.174Z,101785.66
2023-02-21T13:41:56.286Z,101781.25
2023-02-21T13:44:36.289Z,101781.25
2023-02-21T13:47:14.245Z,101783.03
2023-02-21T13:49:59.345Z,101778.63
2023-02-21T13:52:51.789Z,101786.53
2023-02-21T13:55:18.735Z,101779.50
2023-02-21T13:58:11.894Z,101775.97
2023-02-21T14:00:38.803Z,101765.41
2023-02-21T14:03:28.086Z,101763.63
2023-02-21T14:05:57.700Z,101763.63
2023-02-21T14:08:50.528Z,101755.72
2023-02-21T14:11:23.865Z,101753.94
2023-02-21T14:14:03.323Z,101755.69
2023-02-21T14:16:46.293Z,101744.19
2023-02-21T14:19:30.675Z,101752.16
2023-02-21T14:22:15.584Z,101746.91
2023-02-21T14:24:48.405Z,101746.91
2023-02-21T14:27:15.398Z,101743.38
2023-02-21T14:30:06.534Z,101741.63
2023-02-21T14:32:54.981Z,101738.97
2023-02-21T14:35:49.846Z,101740.75
2023-02-21T14:38:27.212Z,101741.59
2023-02-21T14:41:33.177Z,101735.44
2023-02-21T14:44:17.939Z,101729.25
2023-02-21T14:46:54.394Z,101734.53
2023-02-21T14:49:51.536Z,101727.50
2023-02-21T14:52:27.228Z,101723.97
2023-02-21T14:54:57.169Z,101722.22
2023-02-21T14:57:49.941Z,101714.28
2023-02-21T15:00:47.693Z,101727.47
2023-02-21T15:03:28.844Z,101717.78
2023-02-21T15:06:12.734Z,101719.56
2023-02-21T15:08:49.840Z,101720.44
2023-02-21T15:11:40.163Z,101720.44
2023-02-21T15:14:29.490Z,101718.66
2023-02-21T15:17:02.034Z,101726.59
2023-02-21T15:19:35.400Z,101720.41
2023-02-21T15:22:16.189Z,101718.66
2023-02-21T15:25:08.443Z,101723.06
2023-02-21T15:27:37.980Z,101717.78
2023-02-21T15:30:25.149Z,101721.34
2023-02-21T15:33:15.468Z,101723.97
2023-02-21T15:35:57.093Z,101717.78
2023-02-21T15:38:35.860Z,101712.50
2023-02-21T15:41:17.062Z,101722.56
2023-02-21T15:43:56.241Z,101735.00
2023-02-21T15:46:30.250Z,101731.94
2023-02-21T15:49:03.041Z,101736.28
2023-02-21T15:51:30.373Z,101737.97
2023-02-21T15:54:20.922Z,101746.69
2023-02-21T15:56:48.034Z,101739.66
2023-02-21T15:59:27.360Z,101735.16
2023-02-21T16:02:15.194Z,101737.38
2023-02-21T16:04:48.595Z,101742.44
2023-02-21T16:07:35.551Z,101740.91
2023-02-21T16:10:09.312Z,101737.44
2023-02-21T16:12:45.340Z,101739.28
2023-02-21T16:15:18.473Z,101734.81
2023-02-21T16:17:51.629Z,101737.53
2023-02-21T16:20:29.930Z,101739.94
2023-02-21T16:23:30.996Z,101728.56
2023-02-21T16:26:21.015Z,101731.19
2023-02-21T16:28:47.987Z,101731.25
2023-02-21T16:31:24.741Z,101726.88
2023-02-21T16:33:51.836Z,101732.19
2023-02-21T16:36:29.042Z,101733.88
2023-02-21T16:38:58.113Z,101725.09
2023-02-21T16:41:26.048Z,101726.00
2023-02-21T16:43:53.307Z,101720.63
2023-02-21T16:46:30.076Z,101721.75
2023-02-21T16:48:57.531Z,101722.59
2023-02-21T16:51:24.540Z,101723.53
2023-02-21T16:53:51.497Z,101721.09
2023-02-21T16:56:18.632Z,101719.34
2023-02-21T16:58:54.247Z,101717.31
2023-02-21T17:01:30.737Z,101725.91
2023-02-21T17:03:57.828Z,101724.28
2023-02-21T17:06:27.291Z,101720.53
2023-02-21T17:08:54.874Z,101723.94
2023-02-21T17:11:21.918Z,101721.25
2023-02-21T17:13:48.917Z,101715.81
2023-02-21T17:16:15.918Z,101722.88
2023-02-21T17:18:45.202Z,101715.00
2023-02-21T17:21:12.631Z,101717.69
2023-02-21T17:23:39.730Z,101722.88
2023-02-21T17:26:06.706Z,101720.09
2023-02-21T17:28:34.630Z,101727.06
2023-02-21T17:31:01.734Z,101724.44
2023-02-21T17:33:28.753Z,101718.44
2023-02-21T17:35:55.707Z,101722.66
2023-02-21T17:38:22.707Z,101721.78
2023-02-21T17:40:49.806Z,101733.16
2023-02-21T17:43:17.281Z,101723.97
2023-02-21T17:45:46.179Z,101708.94
2023-02-21T17:48:13.344Z,101693.31
2023-02-21T17:50:40.314Z,101686.88
2023-02-21T17:53:08.771Z,101682.97
2023-02-21T17:55:35.784Z,101691.19
2023-02-21T17:58:02.740Z,101697.63
2023-02-21T18:00:33.843Z,101695.97
2023-02-21T18:03:04.285Z,101700.59
2023-02-21T18:05:32.226Z,101702.56
2023-02-21T18:07:59.585Z,101706.28
2023-02-21T18:10:27.830Z,101714.38
2023-02-21T18:12:55.935Z,101710.19
2023-02-21T18:15:29.494Z,101707.75
2023-02-21T18:17:59.072Z,101712.34
2023-02-21T18:20:26.036Z,101709.91
2023-02-21T18:22:53.096Z,101702.03
2023-02-21T18:25:22.610Z,101698.59
2023-02-21T18:27:50.011Z,101692.41
2023-02-21T18:30:18.961Z,101688.88
2023-02-21T18:32:46.987Z,101684.47
2023-02-21T18:35:16.373Z,101680.97
2023-02-21T18:37:46.026Z,101680.13
2023-02-21T18:40:18.637Z,101668.13
2023-02-21T18:42:47.645Z,101667.53
2023-02-21T18:45:14.729Z,101657.09
2023-02-21T18:47:42.218Z,101660.34
2023-02-21T18:50:09.813Z,101652.28
2023-02-21T18:52:36.739Z,101655.31
2023-02-21T18:55:04.143Z,101662.72
2023-02-21T18:57:31.749Z,101664.63
2023-02-21T18:59:59.015Z,101668.31
2023-02-21T19:02:26.144Z,101673.72
2023-02-21T19:04:53.169Z,101664.97
2023-02-21T19:07:20.142Z,101656.22
2023-02-21T19:09:50.334Z,101658.91
2023-02-21T19:12:17.964Z,101660.69
2023-02-21T19:14:45.074Z,101660.72
2023-02-21T19:17:12.137Z,101656.31
2023-02-21T19:19:39.657Z,101657.25
2023-02-21T19:22:07.214Z,101653.69
2023-02-21T19:24:34.516Z,101645.78
2023-02-21T19:27:01.996Z,101647.59
2023-02-21T19:29:29.094Z,101652.97
2023-02-21T19:31:56.373Z,101650.31
2023-02-21T19:34:23.520Z,101656.53
2023-02-21T19:36:50.690Z,101652.16
2023-02-21T19:39:18.574Z,101657.47
2023-02-21T19:41:45.934Z,101637.72
2023-02-21T19:44:13.494Z,101642.22
2023-02-21T19:46:40.634Z,101648.53
2023-02-21T19:49:18.064Z,101654.19
2023-02-21T19:51:52.463Z,101646.31
2023-02-21T19:54:24.690Z,101656.69
2023-02-21T19:56:51.624Z,101655.72
2023-02-21T19:59:21.484Z,101662.56
2023-02-21T20:01:48.734Z,101661.75
2023-02-21T20:04:18.562Z,101660.66
2023-02-21T20:06:46.963Z,101657.22
2023-02-21T20:09:14.226Z,101671.41
2023-02-21T20:11:41.281Z,101651.69
2023-02-21T20:14:10.372Z,101643.41
2023-02-21T20:16:42.902Z,101631.56
2023-02-21T20:19:11.774Z,101627.03
2023-02-21T20:21:40.769Z,101631.06
2023-02-21T20:24:07.940Z,101633.06
2023-02-21T20:26:35.086Z,101628.06
2023-02-21T20:29:02.415Z,101629.94
2023-02-21T20:31:32.708Z,101639.78
2023-02-21T20:34:03.217Z,101632.91
2023-02-21T20:36:37.965Z,101641.91
2023-02-21T20:39:07.801Z,101638.59
2023-02-21T20:41:39.043Z,101617.38
2023-02-21T20:44:06.475Z,101624.84
2023-02-21T20:46:34.969Z,101623.94
2023-02-21T20:49:03.356Z,101621.59
2023-02-21T20:51:39.067Z,101623.97
2023-02-21T20:54:10.944Z,101630.69
2023-02-21T20:56:41.069Z,101624.63
2023-02-21T20:59:15.863Z,101617.56
2023-02-21T21:01:51.040Z,101619.75
2023-02-21T21:04:26.637Z,101613.78
2023-02-21T21:07:00.270Z,101615.59
2023-02-21T21:09:34.204Z,101608.34
2023-02-21T21:12:09.128Z,101609.19
2023-02-21T21:14:41.635Z,101607.41
2023-02-21T21:17:12.855Z,101599.41
2023-02-21T21:19:43.036Z,101603.00
2023-02-21T21:22:19.103Z,101596.81
2023-02-21T21:24:46.414Z,101596.03
2023-02-21T21:27:15.365Z,101596.69
2023-02-21T21:29:45.524Z,101591.16
2023-02-21T21:32:19.482Z,101588.84
2023-02-21T21:34:50.442Z,101594.91
2023-02-21T21:37:21.144Z,101598.91
2023-02-21T21:39:57.773Z,101594.63
2023-02-21T21:42:29.644Z,101592.06
2023-02-21T21:44:57.704Z,101594.63
2023-02-21T21:47:37.172Z,101596.34
2023-02-21T21:50:05.749Z,101592.00
2023-02-21T21:52:33.157Z,101586.53
2023-02-21T21:55:00.234Z,101581.16
2023-02-21T21:57:27.457Z,101585.34
2023-02-21T21:59:55.261Z,101581.97
2023-02-21T22:02:22.258Z,101567.88
2023-02-21T22:04:53.205Z,101565.19
2023-02-21T22:07:20.656Z,101564.25
2023-02-21T22:09:47.630Z,101552.81
2023-02-21T22:12:18.895Z,101552.69
2023-02-21T22:14:45.923Z,101547.41
2023-02-21T22:17:12.998Z,101548.25
2023-02-21T22:19:40.605Z,101537.00
2023-02-21T22:22:08.353Z,101528.22
2023-02-21T22:24:35.614Z,101521.06
2023-02-21T22:27:02.800Z,101521.84
2023-02-21T22:29:29.746Z,101529.81
2023-02-21T22:31:56.790Z,101529.75
2023-02-21T22:34:23.772Z,101527.06
2023-02-21T22:36:57.364Z,101516.69
2023-02-21T22:39:25.932Z,101515.72
2023-02-21T22:41:53.944Z,101516.44
2023-02-21T22:44:24.853Z,101512.09
2023-02-21T22:46:58.554Z,101503.47
2023-02-21T22:49:27.689Z,101511.16
2023-02-21T22:51:55.043Z,101513.66
2023-02-21T22:54:22.001Z,101506.88
2023-02-21T22:56:52.513Z,101511.94
2023-02-21T22:59:24.333Z,101516.97
2023-02-21T23:01:51.664Z,101522.34
2023-02-21T23:04:27.857Z,101517.88
2023-02-21T23:06:58.146Z,101518.56
2023-02-21T23:09:27.726Z,101513.16
2023-02-21T23:11:59.486Z,101518.53
2023-02-21T23:14:31.586Z,101520.19
2023-02-21T23:16:59.650Z,101516.84
2023-02-21T23:19:30.112Z,101521.19
2023-02-21T23:21:57.884Z,101515.97
2023-02-21T23:24:25.222Z,101519.34
2023-02-21T23:26:54.697Z,101519.94
2023-02-21T23:29:26.249Z,101504.25
2023-02-21T23:31:57.962Z,101501.69
2023-02-21T23:34:40.221Z,101497.41
2023-02-21T23:37:09.343Z,101495.38
2023-02-21T23:39:36.459Z,101497.09
2023-02-21T23:42:03.672Z,101498.81
2023-02-21T23:44:36.016Z,101513.81
2023-02-21T23:47:05.972Z,101497.81
2023-02-21T23:49:33.472Z,101501.44
2023-02-21T23:52:01.692Z,101504.41
2023-02-21T23:54:28.848Z,101494.91
2023-02-21T23:57:00.629Z,101500.25
2023-02-21T23:59:28.728Z,101497.81
